Time;durP1;ratioP1;P1;durP2;ratioP2;P2;SDS_P1;SDS_P2;PMS_P1;PMS_P2;Temp;Humidity;BMP_temperature;BMP_pressure;BME280_temperature;BME280_humidity;BME280_pressure;Samples;Min_cycle;Max_cycle;Signal;HPM_P1;HPM_P2
2023/10/16 00:02:23;;;;;;;4.95;1.90;;;;;;;12.46;71.17;102538.09;5030585;28;20033;-44
2023/10/16 00:04:49;;;;;;;5.57;1.85;;;;;;;12.58;70.95;102537.59;5031040;28;20033;-44
2023/10/16 00:07:20;;;;;;;3.85;1.85;;;;;;;12.57;71.12;102541.94;5031786;28;20029;-42
2023/10/16 00:09:45;;;;;;;5.05;1.90;;;;;;;12.64;70.99;102550.88;5036670;28;20116;-47
2023/10/16 00:12:11;;;;;;;5.38;2.03;;;;;;;12.66;71.17;102543.97;5031294;28;20033;-43
2023/10/16 00:14:36;;;;;;;3.92;2.00;;;;;;;12.56;71.41;102553.25;5030403;28;20075;-43
2023/10/16 00:17:08;;;;;;;5.35;2.13;;;;;;;12.60;71.33;102542.06;5029827;28;20041;-50
2023/10/16 00:19:37;;;;;;;6.68;2.38;;;;;;;12.51;72.08;102540.84;5030347;28;20034;-41
2023/10/16 00:22:13;;;;;;;5.03;1.95;;;;;;;12.63;71.73;102543.88;5029355;28;20510;-42
2023/10/16 00:24:45;;;;;;;5.95;2.05;;;;;;;12.69;71.34;102544.06;5030227;28;20037;-46
2023/10/16 00:27:14;;;;;;;5.00;2.10;;;;;;;12.71;71.04;102536.25;5029728;28;20036;-43
2023/10/16 00:29:41;;;;;;;5.65;2.22;;;;;;;12.58;71.52;102542.84;5028701;28;20033;-44
2023/10/16 00:32:07;;;;;;;5.18;2.00;;;;;;;12.52;71.60;102543.53;5029586;28;20492;-46
2023/10/16 00:34:36;;;;;;;5.15;2.20;;;;;;;12.57;70.84;102531.47;5029418;28;20048;-44
2023/10/16 00:37:07;;;;;;;4.57;2.03;;;;;;;12.56;70.75;102532.31;5029333;28;20041;-46
2023/10/16 00:39:33;;;;;;;4.03;1.88;;;;;;;12.57;70.40;102528.88;5029824;28;20033;-45
2023/10/16 00:41:58;;;;;;;4.35;1.90;;;;;;;12.40;70.54;102529.16;5028757;28;20030;-49
2023/10/16 00:44:25;;;;;;;3.88;1.90;;;;;;;12.27;70.55;102537.44;5029528;28;20040;-43
2023/10/16 00:46:53;;;;;;;3.55;1.90;;;;;;;12.17;70.59;102525.81;5029819;28;20029;-43
2023/10/16 00:49:18;;;;;;;4.30;2.10;;;;;;;12.07;70.43;102524.63;5029074;28;20116;-43
2023/10/16 00:51:45;;;;;;;6.00;2.40;;;;;;;11.99;70.21;102519.97;5029542;28;20373;-43
2023/10/16 00:54:17;;;;;;;4.68;1.98;;;;;;;11.91;70.34;102518.81;5029333;28;20041;-44
2023/10/16 00:56:45;;;;;;;5.30;2.00;;;;;;;11.78;70.81;102515.78;5029517;28;20041;-47
2023/10/16 00:59:16;;;;;;;4.82;1.90;;;;;;;11.75;70.73;102514.81;5028951;28;20025;-46
2023/10/16 01:01:46;;;;;;;5.47;2.10;;;;;;;11.69;71.16;102506.72;5029461;28;20183;-43
2023/10/16 01:04:13;;;;;;;4.15;1.95;;;;;;;11.58;72.70;102508.97;5029046;28;20411;-46
2023/10/16 01:06:41;;;;;;;6.18;2.30;;;;;;;11.51;73.22;102509.56;5029429;28;20032;-47
2023/10/16 01:09:10;;;;;;;4.72;2.00;;;;;;;11.65;72.11;102508.31;5028849;28;20516;-47
2023/10/16 01:11:37;;;;;;;5.38;2.17;;;;;;;11.56;72.72;102497.56;5029329;28;20038;-43
2023/10/16 01:14:04;;;;;;;4.68;2.10;;;;;;;11.57;72.51;102496.72;5028422;28;20086;-46
2023/10/16 01:16:29;;;;;;;3.92;1.92;;;;;;;11.59;72.31;102502.88;5029345;28;20038;-44
2023/10/16 01:19:00;;;;;;;3.90;1.80;;;;;;;11.62;71.92;102502.09;5028943;28;20180;-47
2023/10/16 01:21:27;;;;;;;5.30;2.10;;;;;;;11.54;73.11;102499.22;5029376;28;20446;-45
2023/10/16 01:23:52;;;;;;;5.35;1.80;;;;;;;11.55;72.72;102501.00;5029120;28;20491;-45
2023/10/16 01:26:18;;;;;;;4.88;1.88;;;;;;;11.57;72.13;102501.06;5028803;28;20029;-43
2023/10/16 01:28:44;;;;;;;5.00;1.70;;;;;;;11.54;71.71;102507.06;5029008;28;20492;-46
2023/10/16 01:31:09;;;;;;;3.03;1.60;;;;;;;11.51;71.76;102501.75;5028769;28;20088;-44
2023/10/16 01:33:35;;;;;;;5.15;1.65;;;;;;;11.48;71.79;102491.16;5029079;28;20109;-47
2023/10/16 01:36:00;;;;;;;6.78;1.80;;;;;;;11.50;71.73;102489.50;5029689;28;20080;-44
2023/10/16 01:38:27;;;;;;;3.58;1.90;;;;;;;11.48;71.90;102487.66;5030512;28;20041;-46
2023/10/16 01:41:09;;;;;;;4.78;1.67;;;;;;;11.46;71.60;102486.75;5029613;28;20025;-43
2023/10/16 01:43:38;;;;;;;5.60;1.80;;;;;;;11.39;71.93;102485.63;5029099;28;20033;-43
2023/10/16 01:46:08;;;;;;;4.20;1.80;;;;;;;11.38;72.32;102479.53;5029561;28;20041;-45
2023/10/16 01:48:37;;;;;;;6.07;1.85;;;;;;;11.38;72.48;102489.06;5033137;28;20514;-43
2023/10/16 01:51:05;;;;;;;5.03;1.92;;;;;;;11.38;72.99;102486.47;5032510;28;20060;-43
2023/10/16 01:53:32;;;;;;;4.18;1.63;;;;;;;11.38;72.95;102486.47;5033283;28;20053;-41
2023/10/16 01:55:58;;;;;;;4.53;1.90;;;;;;;11.39;73.02;102483.03;5033043;28;20060;-40
2023/10/16 01:58:24;;;;;;;5.65;2.10;;;;;;;11.34;73.11;102477.63;5033177;28;20034;-42
2023/10/16 02:00:54;;;;;;;6.35;2.10;;;;;;;11.39;72.95;102481.31;5032906;28;20037;-45
2023/10/16 02:03:22;;;;;;;6.22;2.00;;;;;;;11.41;73.01;102483.94;5032235;28;20033;-45
2023/10/16 02:05:48;;;;;;;3.88;1.70;;;;;;;11.39;73.20;102480.41;5031563;28;20102;-45
2023/10/16 02:08:13;;;;;;;3.67;1.70;;;;;;;11.50;72.70;102483.41;5032540;28;20499;-47
2023/10/16 02:10:40;;;;;;;5.15;1.58;;;;;;;11.48;72.74;102482.44;5032734;28;20040;-50
2023/10/16 02:13:06;;;;;;;5.95;1.60;;;;;;;11.47;72.68;102493.72;5031977;28;20034;-43
2023/10/16 02:15:36;;;;;;;4.10;1.38;;;;;;;11.52;72.53;102485.25;5032885;28;20512;-44
2023/10/16 02:18:03;;;;;;;4.15;1.52;;;;;;;11.45;72.67;102483.25;5032349;28;20041;-44
2023/10/16 02:20:31;;;;;;;4.88;1.52;;;;;;;11.48;73.12;102474.59;5033453;28;20173;-42
2023/10/16 02:22:56;;;;;;;6.05;1.52;;;;;;;11.47;72.59;102480.66;5032677;28;20060;-45
2023/10/16 02:25:23;;;;;;;3.75;1.55;;;;;;;11.53;72.62;102479.16;5031640;28;20562;-46
2023/10/16 02:27:50;;;;;;;4.53;1.60;;;;;;;11.49;72.48;102477.28;5032538;28;20037;-43
2023/10/16 02:32:46;;;;;;;4.88;1.60;;;;;;;11.39;72.72;102463.03;5031810;28;20041;-42
2023/10/16 02:35:14;;;;;;;5.70;1.63;;;;;;;11.46;72.68;102468.47;5031787;28;20038;-41
2023/10/16 02:37:40;;;;;;;4.13;1.73;;;;;;;11.48;72.73;102478.09;5030703;28;20454;-48
2023/10/16 02:40:10;;;;;;;5.20;1.92;;;;;;;11.21;75.13;102475.44;5031694;28;20091;-45
2023/10/16 02:42:41;;;;;;;7.95;2.10;;;;;;;11.27;74.44;102473.03;5032115;28;20029;-46
2023/10/16 02:45:23;;;;;;;5.22;1.95;;;;;;;11.40;73.83;102467.38;5031641;28;20033;-50
2023/10/16 02:47:49;;;;;;;5.22;2.20;;;;;;;11.30;74.21;102467.91;5032515;28;20048;-45
2023/10/16 02:50:15;;;;;;;7.78;2.22;;;;;;;10.98;75.39;102466.72;5032064;28;20030;-46
2023/10/16 02:52:40;;;;;;;4.65;2.10;;;;;;;11.31;73.84;102463.56;5031897;28;20033;-43
2023/10/16 02:55:06;;;;;;;5.90;1.95;;;;;;;11.37;73.22;102455.97;5031159;28;20048;-45
2023/10/16 02:57:32;;;;;;;6.80;2.20;;;;;;;11.36;73.05;102448.94;5031358;28;20037;-46
2023/10/16 02:59:58;;;;;;;6.82;2.00;;;;;;;11.33;73.01;102449.75;5031472;28;20042;-47
2023/10/16 03:02:25;;;;;;;6.85;1.92;;;;;;;11.33;73.02;102452.38;5031726;28;20048;-47
2023/10/16 03:04:54;;;;;;;5.15;1.70;;;;;;;11.37;72.82;102453.34;5032102;28;20531;-42
2023/10/16 03:07:20;;;;;;;5.85;1.98;;;;;;;11.33;73.09;102452.38;5031628;28;20088;-44
2023/10/16 03:09:49;;;;;;;4.80;1.60;;;;;;;11.38;73.21;102450.81;5031695;28;20033;-44
2023/10/16 03:12:15;;;;;;;4.35;1.67;;;;;;;11.41;73.09;102450.00;5030528;28;20437;-45
2023/10/16 03:14:48;;;;;;;3.47;1.60;;;;;;;11.44;73.06;102449.22;5031535;28;20108;-44
2023/10/16 03:19:55;;;;;;;3.25;1.55;;;;;;;11.51;72.97;102452.13;5031264;28;20498;-43
2023/10/16 03:22:22;;;;;;;4.03;1.70;;;;;;;11.54;73.02;102451.31;5040542;28;20041;-44
2023/10/16 03:24:47;;;;;;;3.95;1.60;;;;;;;11.74;72.57;102456.44;5038748;28;20345;-42
2023/10/16 03:27:27;;;;;;;4.53;1.63;;;;;;;11.70;72.88;102453.63;5031147;28;20034;-44
2023/10/16 03:29:54;;;;;;;5.50;1.48;;;;;;;11.70;73.46;102456.25;5031322;28;20038;-43
2023/10/16 03:32:20;;;;;;;3.60;1.58;;;;;;;11.68;73.99;102463.13;5030660;28;20491;-43
2023/10/16 03:34:45;;;;;;;3.92;1.85;;;;;;;11.54;75.08;102465.25;5031195;28;20033;-46
2023/10/16 03:37:10;;;;;;;4.75;1.60;;;;;;;11.76;74.36;102461.72;5030985;28;20026;-42
2023/10/16 03:39:36;;;;;;;6.40;1.60;;;;;;;11.95;74.10;102451.03;5030780;28;20033;-45
2023/10/16 03:42:01;;;;;;;5.25;1.80;;;;;;;12.01;73.99;102450.34;5030452;28;20403;-47
2023/10/16 03:44:27;;;;;;;3.40;1.60;;;;;;;11.84;74.94;102451.50;5030830;28;20660;-45
2023/10/16 03:46:55;;;;;;;4.60;1.83;;;;;;;11.82;75.31;102455.81;5030727;28;20459;-46
2023/10/16 03:49:21;;;;;;;4.63;1.73;;;;;;;11.73;75.63;102457.25;5030499;28;20431;-45
2023/10/16 03:51:48;;;;;;;3.95;1.42;;;;;;;11.94;73.59;102450.97;5030634;28;20115;-47
2023/10/16 03:54:16;;;;;;;2.38;1.30;;;;;;;11.91;73.55;102458.72;5030072;28;20030;-47
2023/10/16 03:56:41;;;;;;;2.60;1.48;;;;;;;11.90;73.14;102451.69;5030594;28;20041;-46
2023/10/16 03:59:06;;;;;;;4.80;1.40;;;;;;;11.87;72.62;102444.66;5029975;28;20045;-44
2023/10/16 04:01:37;;;;;;;4.13;1.50;;;;;;;11.82;72.40;102448.84;5030234;28;20041;-45
2023/10/16 04:04:03;;;;;;;2.42;1.30;;;;;;;11.78;72.54;102447.84;5028353;28;20041;-46
2023/10/16 04:06:30;;;;;;;3.33;1.30;;;;;;;11.74;72.72;102453.81;5030357;28;20141;-44
2023/10/16 04:08:58;;;;;;;4.22;1.80;;;;;;;11.71;72.61;102440.59;5029375;28;20033;-43
2023/10/16 04:11:24;;;;;;;4.00;1.50;;;;;;;11.63;72.96;102441.19;5030073;28;20480;-43
2023/10/16 04:13:49;;;;;;;4.78;1.33;;;;;;;11.66;72.71;102436.06;5030224;28;20025;-44
2023/10/16 04:18:51;;;;;;;2.90;1.52;;;;;;;11.70;73.28;102443.19;5031860;28;20472;-46
2023/10/16 04:53:09;;;;;;;3.47;1.57;;;;;;;12.45;74.26;102421.22;5031253;28;20041;-44
2023/10/16 05:11:32;;;;;;;5.28;1.50;;;;;;;12.52;75.32;102404.00;5031178;28;20120;-42
2023/10/16 05:22:03;;;;;;;4.65;1.83;;;;;;;12.45;73.82;102395.06;5034930;28;20061;-46
2023/10/16 06:14:13;;;;;;;4.10;1.90;;;;;;;12.70;74.99;102401.03;5031972;28;20180;-45
2023/10/16 06:16:46;;;;;;;6.40;2.00;;;;;;;12.76;75.20;102403.81;5032390;28;20049;-45
2023/10/16 06:19:17;;;;;;;5.15;1.98;;;;;;;12.74;75.21;102406.41;5032098;28;20041;-49
2023/10/16 06:21:46;;;;;;;6.70;1.95;;;;;;;12.80;75.07;102414.44;5031436;28;20523;-48
2023/10/16 06:24:25;;;;;;;4.18;2.03;;;;;;;12.76;76.44;102416.91;5032151;28;20079;-48
2023/10/16 06:27:01;;;;;;;6.20;2.03;;;;;;;12.79;75.88;102412.66;5032723;28;20044;-50
2023/10/16 06:29:40;;;;;;;3.28;1.85;;;;;;;12.95;75.62;102407.00;5032121;28;20041;-47
2023/10/16 06:32:18;;;;;;;4.05;1.90;;;;;;;13.02;75.29;102408.97;5030725;28;20060;-44
2023/10/16 06:34:57;;;;;;;5.47;2.08;;;;;;;13.02;75.16;102408.97;5032069;28;20034;-45
2023/10/16 06:37:27;;;;;;;5.53;2.10;;;;;;;13.07;75.22;102413.44;5030946;28;20033;-49
2023/10/16 06:39:54;;;;;;;6.20;1.90;;;;;;;13.21;74.93;102425.22;5031882;28;20048;-47
2023/10/16 06:42:20;;;;;;;5.32;2.03;;;;;;;13.15;75.16;102425.94;5032097;28;20041;-45
2023/10/16 06:44:56;;;;;;;4.57;1.92;;;;;;;13.22;75.06;102421.75;5032318;28;20057;-47
2023/10/16 06:47:23;;;;;;;4.55;2.10;;;;;;;13.13;75.76;102425.00;5031807;28;20041;-46
2023/10/16 06:49:52;;;;;;;4.72;2.20;;;;;;;13.24;75.54;102427.91;5031280;28;20055;-45
2023/10/16 06:52:17;;;;;;;5.80;2.00;;;;;;;13.06;76.34;102427.34;5030448;28;20045;-47
2023/10/16 06:54:44;;;;;;;3.38;2.22;;;;;;;13.09;76.61;102430.97;5033542;28;20033;-43
2023/10/16 06:57:13;;;;;;;5.30;2.30;;;;;;;13.23;76.24;102432.28;5032190;28;20038;-46
2023/10/16 06:59:42;;;;;;;4.07;2.17;;;;;;;13.37;75.73;102433.50;5032491;28;20061;-47
2023/10/16 07:02:15;;;;;;;7.22;2.20;;;;;;;13.41;75.44;102426.63;5031170;28;20033;-49
2023/10/16 07:04:41;;;;;;;4.18;2.00;;;;;;;13.43;75.36;102427.53;5031928;28;20163;-46
2023/10/16 07:07:14;;;;;;;6.18;1.88;;;;;;;13.33;76.05;102436.91;5031277;28;20486;-45
2023/10/16 07:09:47;;;;;;;4.45;1.77;;;;;;;13.29;76.02;102436.78;5032003;28;20025;-48
2023/10/16 07:12:13;;;;;;;5.63;1.88;;;;;;;13.50;75.76;102439.06;5030692;28;20038;-48
2023/10/16 07:14:38;;;;;;;3.50;1.80;;;;;;;13.58;75.40;102435.81;5031628;28;20116;-48
2023/10/16 07:17:03;;;;;;;4.15;1.90;;;;;;;13.59;75.27;102437.59;5031057;28;20562;-46
2023/10/16 07:19:29;;;;;;;3.70;2.00;;;;;;;13.66;75.32;102434.25;5031096;28;20033;-50
2023/10/16 07:21:56;;;;;;;4.40;2.10;;;;;;;13.71;75.42;102432.66;5030821;28;20029;-47
2023/10/16 07:24:21;;;;;;;6.38;2.20;;;;;;;13.73;75.40;102433.56;5030833;28;20033;-48
2023/10/16 07:26:47;;;;;;;6.35;2.40;;;;;;;13.73;75.47;102440.53;5031124;28;20061;-46
2023/10/16 07:29:13;;;;;;;6.47;2.20;;;;;;;13.62;76.32;102440.28;5030487;28;20107;-47
2023/10/16 07:31:38;;;;;;;4.45;2.33;;;;;;;13.90;75.44;102433.13;5031039;28;20033;-46
2023/10/16 07:34:04;;;;;;;5.82;2.47;;;;;;;14.03;75.15;102425.56;5030508;28;20643;-47
2023/10/16 07:36:30;;;;;;;8.98;2.50;;;;;;;14.09;75.05;102425.72;5030988;28;20380;-49
2023/10/16 07:38:56;;;;;;;6.85;2.58;;;;;;;14.20;75.33;102426.88;5030228;28;20037;-50
2023/10/16 07:41:23;;;;;;;6.70;2.80;;;;;;;14.28;75.48;102434.00;5030751;28;20120;-47
2023/10/16 07:43:49;;;;;;;6.35;2.25;;;;;;;14.47;75.19;102437.13;5029457;28;20364;-48
2023/10/16 07:46:30;;;;;;;4.95;2.47;;;;;;;14.19;74.78;102438.22;5030814;28;20064;-46
2023/10/16 07:49:01;;;;;;;7.25;2.90;;;;;;;13.89;76.33;102436.59;5029147;28;20037;-46
2023/10/16 07:51:27;;;;;;;6.35;2.95;;;;;;;14.04;76.70;102440.47;5030422;28;20033;-46
2023/10/16 07:53:54;;;;;;;7.60;2.80;;;;;;;14.43;75.89;102434.41;5030515;28;20499;-47
2023/10/16 07:58:54;;;;;;;7.53;2.70;;;;;;;14.95;74.81;102434.66;5030863;28;20539;-47
2023/10/16 08:01:32;;;;;;;6.68;2.92;;;;;;;15.01;74.39;102442.66;5030111;28;20487;-46
2023/10/16 08:03:58;;;;;;;8.65;2.88;;;;;;;15.07;74.08;102439.25;5029857;28;20033;-47
2023/10/16 08:06:25;;;;;;;6.75;2.50;;;;;;;15.08;73.55;102441.03;5030570;28;20549;-46
2023/10/16 08:09:19;;;;;;;10.55;2.58;;;;;;;14.97;73.36;102445.19;5030549;28;20037;-46
2023/10/16 08:11:42;;;;;;;11.80;2.60;;;;;;;14.84;73.81;102445.78;5029622;28;20046;-51
2023/10/16 08:14:08;;;;;;;6.32;2.35;;;;;;;14.47;74.42;102447.63;5029609;28;20037;-47
2023/10/16 08:16:34;;;;;;;5.40;2.40;;;;;;;14.56;75.30;102445.22;5030210;28;20527;-47
2023/10/16 08:18:59;;;;;;;5.68;2.20;;;;;;;14.88;74.08;102442.41;5029820;28;20072;-47
2023/10/16 08:21:24;;;;;;;4.15;2.20;;;;;;;14.68;74.13;102447.22;5030208;28;20036;-44
2023/10/16 08:23:58;;;;;;;4.53;2.25;;;;;;;15.00;74.57;102437.41;5029771;28;20099;-49
2023/10/16 08:26:30;;;;;;;5.10;2.00;;;;;;;15.28;73.91;102441.44;5029758;28;20037;-50
2023/10/16 08:29:12;;;;;;;4.18;1.98;;;;;;;15.22;73.26;102442.19;5029463;28;20443;-48
2023/10/16 08:31:41;;;;;;;5.22;1.95;;;;;;;15.26;72.88;102435.25;5029853;28;20041;-50
2023/10/16 08:34:09;;;;;;;4.68;1.90;;;;;;;15.37;72.89;102438.97;5029091;28;20033;-51
2023/10/16 08:36:34;;;;;;;5.63;1.98;;;;;;;15.48;72.73;102440.06;5029948;28;20079;-46
2023/10/16 08:39:08;;;;;;;5.13;2.08;;;;;;;15.24;72.79;102431.72;5030155;28;20503;-44
2023/10/16 08:42:36;;;;;;;7.47;2.50;;;;;;;15.25;73.00;102433.47;5030787;28;20028;-46
2023/10/16 08:44:30;;;;;;;6.50;2.10;;;;;;;15.62;72.77;102435.06;5030397;28;20037;-50
2023/10/16 08:49:25;;;;;;;3.63;1.70;;;;;;;16.10;71.78;102432.38;5031634;28;20044;-44
2023/10/16 08:52:08;;;;;;;2.75;1.60;;;;;;;15.76;69.98;102434.47;5029681;28;20037;-45
2023/10/16 08:55:00;;;;;;;5.45;1.80;;;;;;;16.01;71.20;102435.75;5029328;28;20037;-46
2023/10/16 08:57:25;;;;;;;3.88;1.58;;;;;;;16.04;70.58;102437.56;5029410;28;20061;-46
2023/10/16 08:59:51;;;;;;;3.85;1.40;;;;;;;16.28;70.46;102443.19;5030137;28;20036;-47
2023/10/16 09:02:20;;;;;;;4.75;1.60;;;;;;;16.32;69.19;102439.72;5028486;28;20117;-45
2023/10/16 09:04:52;;;;;;;4.78;1.80;;;;;;;16.23;69.43;102445.72;5028850;28;20055;-45
2023/10/16 09:07:19;;;;;;;3.33;1.45;;;;;;;16.11;68.97;102445.53;5028886;28;20025;-44
2023/10/16 09:09:53;;;;;;;5.47;1.50;;;;;;;16.14;69.25;102440.34;5029602;28;20029;-47
2023/10/16 09:12:28;;;;;;;;;;;;;;;16.04;69.65;102441.03;5029456;28;20527;-46
2023/10/16 09:15:09;;;;;;;3.45;1.10;;;;;;;16.14;68.85;102440.34;5029518;28;19948;-48
2023/10/16 09:17:35;;;;;;;2.30;0.80;;;;;;;16.39;67.87;102438.06;5029130;28;20030;-45
2023/10/16 09:20:12;;;;;;;2.63;1.00;;;;;;;16.49;67.20;102434.69;5028860;28;20125;-46
2023/10/16 09:22:40;;;;;;;2.28;0.98;;;;;;;16.88;66.89;102430.00;5029125;28;20116;-47
2023/10/16 09:25:07;;;;;;;4.85;1.30;;;;;;;16.92;65.86;102437.06;5028812;28;20038;-46
2023/10/16 09:27:36;;;;;;;2.17;1.30;;;;;;;16.86;66.03;102436.09;5029389;28;20503;-48
2023/10/16 09:30:14;;;;;;;4.13;1.23;;;;;;;17.02;65.93;102438.94;5027472;28;20037;-48
2023/10/16 09:32:40;;;;;;;3.55;1.48;;;;;;;16.86;62.64;102439.63;5028939;28;20434;-46
2023/10/16 09:35:11;;;;;;;2.15;1.10;;;;;;;16.48;62.53;102428.53;5028701;28;20030;-48
2023/10/16 09:37:36;;;;;;;3.25;1.30;;;;;;;16.45;65.44;102435.53;5029438;28;20033;-51
2023/10/16 09:40:19;;;;;;;3.25;1.00;;;;;;;16.85;64.29;102423.78;5028686;28;20038;-48
2023/10/16 09:42:55;;;;;;;4.00;1.27;;;;;;;16.77;64.32;102422.84;5029166;28;20037;-45
2023/10/16 09:45:24;;;;;;;2.00;0.80;;;;;;;16.90;63.44;102435.25;5028806;28;20029;-46
2023/10/16 09:47:55;;;;;;;4.93;1.10;;;;;;;16.76;60.98;102426.31;5029152;28;20440;-46
2023/10/16 09:50:22;;;;;;;4.43;1.10;;;;;;;16.96;59.82;102420.41;5028732;28;20103;-47
2023/10/16 09:52:48;;;;;;;2.58;0.63;;;;;;;16.99;57.53;102417.81;5028525;28;20406;-48
2023/10/16 09:55:15;;;;;;;2.80;0.70;;;;;;;17.20;56.76;102418.94;5028461;28;20026;-47
2023/10/16 09:57:49;;;;;;;5.57;0.90;;;;;;;17.36;58.56;102413.84;5028949;28;20587;-46
2023/10/16 10:02:57;;;;;;;2.83;1.17;;;;;;;17.25;60.90;102417.22;5028867;28;20555;-43
2023/10/16 10:05:34;;;;;;;3.00;1.10;;;;;;;17.51;61.13;102421.00;5028627;28;20053;-45
2023/10/16 10:08:03;;;;;;;1.40;0.60;;;;;;;17.67;58.11;102422.97;5030662;28;20037;-45
2023/10/16 10:13:24;;;;;;;3.42;0.93;;;;;;;17.47;57.56;102416.56;5031905;28;20042;-49
2023/10/16 10:15:56;;;;;;;2.47;0.90;;;;;;;17.59;57.86;102416.69;5032644;28;20484;-50
2023/10/16 10:18:42;;;;;;;2.63;0.85;;;;;;;18.11;55.87;102420.63;5032364;28;20120;-43
2023/10/16 10:21:30;;;;;;;2.83;1.00;;;;;;;18.19;56.65;102415.41;5031924;28;20120;-45
2023/10/16 10:24:00;;;;;;;3.40;0.95;;;;;;;18.34;56.71;102412.88;5031898;28;20045;-45
2023/10/16 10:26:27;;;;;;;5.28;0.90;;;;;;;18.48;57.06;102412.97;5032533;28;20087;-46
2023/10/16 10:29:09;;;;;;;4.90;0.90;;;;;;;18.21;55.05;102414.56;5032458;28;20056;-47
2023/10/16 10:31:36;;;;;;;2.67;0.80;;;;;;;18.38;56.81;102419.06;5033069;28;20037;-45
2023/10/16 10:34:18;;;;;;;3.92;0.75;;;;;;;18.67;53.69;102409.56;5032897;28;20095;-44
2023/10/16 10:36:44;;;;;;;2.80;0.82;;;;;;;18.03;56.99;102409.16;5032974;28;20507;-46
2023/10/16 10:39:21;;;;;;;4.05;0.93;;;;;;;17.82;57.97;102420.44;5032044;28;20040;-49
2023/10/16 10:42:03;;;;;;;3.75;1.00;;;;;;;18.09;55.35;102417.13;5031849;28;20061;-46
2023/10/16 10:44:35;;;;;;;5.05;1.00;;;;;;;17.80;55.74;102418.66;5031503;28;20029;-46
2023/10/16 10:47:02;;;;;;;3.30;1.10;;;;;;;17.52;55.33;102424.50;5031276;28;20040;-46
2023/10/16 10:49:35;;;;;;;2.42;1.17;;;;;;;17.08;56.58;102417.03;5031921;28;20029;-44
2023/10/16 10:52:01;;;;;;;5.22;1.20;;;;;;;17.54;56.11;102418.41;5031158;28;20033;-46
2023/10/16 10:54:27;;;;;;;3.13;0.93;;;;;;;17.74;55.63;102408.94;5030570;28;20037;-46
2023/10/16 10:56:59;;;;;;;3.95;0.90;;;;;;;17.74;56.87;102406.31;5032020;28;20079;-49
2023/10/16 10:59:40;;;;;;;3.42;1.00;;;;;;;17.17;58.72;102409.25;5031771;28;20428;-47
2023/10/16 11:02:21;;;;;;;3.03;0.80;;;;;;;17.51;55.42;102405.16;5031153;28;20037;-47
2023/10/16 11:04:53;;;;;;;4.18;1.00;;;;;;;17.95;53.94;102399.41;5031926;28;20073;-43
2023/10/16 11:07:28;;;;;;;1.83;0.63;;;;;;;18.09;51.48;102400.41;5031740;28;20036;-47
2023/10/16 11:09:59;;;;;;;3.75;0.73;;;;;;;18.35;49.79;102400.56;5030326;28;20033;-47
2023/10/16 11:12:24;;;;;;;3.35;0.68;;;;;;;18.25;49.12;102394.34;5030749;28;20047;-47
2023/10/16 11:14:51;;;;;;;5.60;0.73;;;;;;;18.16;49.83;102402.22;5031954;28;20033;-46
2023/10/16 11:17:32;;;;;;;2.88;0.65;;;;;;;18.39;49.60;102399.69;5031053;28;20121;-45
2023/10/16 11:20:11;;;;;;;2.00;0.75;;;;;;;18.72;49.68;102391.09;5031057;28;20068;-45
2023/10/16 11:22:43;;;;;;;1.73;0.63;;;;;;;18.88;49.05;102396.44;5031809;28;20120;-46
2023/10/16 11:25:09;;;;;;;2.20;0.55;;;;;;;18.48;47.81;102387.41;5031093;28;20587;-46
2023/10/16 11:27:35;;;;;;;4.93;0.80;;;;;;;18.76;48.16;102385.81;5032406;28;20083;-45
2023/10/16 11:30:11;;;;;;;2.30;0.60;;;;;;;18.76;47.56;102384.94;5031724;28;20037;-45
2023/10/16 11:32:47;;;;;;;2.28;0.65;;;;;;;18.56;47.28;102383.09;5032571;28;20046;-46
2023/10/16 11:35:15;;;;;;;3.95;0.70;;;;;;;18.45;47.54;102378.59;5033477;28;20037;-45
2023/10/16 11:37:43;;;;;;;5.00;0.70;;;;;;;18.50;46.74;102367.19;5041702;28;20048;-47
2023/10/16 11:40:18;;;;;;;2.65;0.80;;;;;;;18.34;46.35;102373.28;5029578;28;20033;-46
2023/10/16 11:42:45;;;;;;;3.78;0.82;;;;;;;18.24;46.37;102369.69;5030842;28;20045;-47
2023/10/16 11:45:18;;;;;;;2.45;0.80;;;;;;;18.41;46.37;102364.53;5030185;28;20373;-50
2023/10/16 11:47:43;;;;;;;1.88;0.70;;;;;;;18.61;46.92;102367.25;5031640;28;20033;-42
2023/10/16 11:50:17;;;;;;;3.67;0.65;;;;;;;18.11;47.48;102359.09;5031800;28;20116;-45
2023/10/16 11:52:43;;;;;;;3.42;0.80;;;;;;;18.50;45.83;102353.97;5030997;28;20072;-46
2023/10/16 11:55:08;;;;;;;3.33;0.77;;;;;;;18.64;46.90;102356.72;5031012;28;20061;-47
2023/10/16 11:57:34;;;;;;;3.35;0.75;;;;;;;18.55;45.59;102346.09;5031751;28;20029;-46
2023/10/16 12:00:15;;;;;;;2.63;0.80;;;;;;;18.61;46.37;102348.78;5031233;28;20025;-45
2023/10/16 12:02:41;;;;;;;3.70;0.88;;;;;;;18.88;46.53;102353.28;5031060;28;20120;-51
2023/10/16 12:05:07;;;;;;;5.32;0.80;;;;;;;18.74;47.27;102345.28;5027587;28;20065;-46
2023/10/16 12:07:33;;;;;;;4.55;0.80;;;;;;;18.99;46.70;102349.78;5030177;28;20547;-46
2023/10/16 12:10:04;;;;;;;4.55;0.70;;;;;;;18.96;46.56;102340.97;5029775;28;20116;-48
2023/10/16 12:12:30;;;;;;;4.15;0.80;;;;;;;19.04;44.04;102340.09;5030328;28;20065;-46
2023/10/16 12:14:56;;;;;;;2.15;0.63;;;;;;;19.03;46.29;102340.97;5029699;28;20084;-45
2023/10/16 12:17:24;;;;;;;4.13;0.70;;;;;;;19.12;46.16;102331.28;5029979;28;20041;-46
2023/10/16 12:19:52;;;;;;;6.78;0.75;;;;;;;18.91;45.96;102332.13;5027033;28;20022;-45
2023/10/16 12:22:20;;;;;;;2.60;0.88;;;;;;;18.73;47.36;102334.72;5029368;28;20029;-44
2023/10/16 12:24:46;;;;;;;5.45;0.88;;;;;;;18.77;46.87;102334.75;5030153;28;20033;-46
2023/10/16 12:27:15;;;;;;;3.20;0.77;;;;;;;18.85;46.27;102326.81;5030111;28;20047;-45
2023/10/16 12:29:41;;;;;;;3.67;0.88;;;;;;;18.82;45.89;102332.13;5029820;28;20345;-49
2023/10/16 12:32:07;;;;;;;3.72;1.00;;;;;;;18.95;46.65;102332.16;5029245;28;20056;-45
2023/10/16 12:34:32;;;;;;;3.30;0.70;;;;;;;19.01;45.56;102321.59;5029894;28;20038;-45
2023/10/16 12:36:58;;;;;;;3.13;0.73;;;;;;;19.03;45.71;102316.28;5029819;28;20044;-47
2023/10/16 12:39:28;;;;;;;3.95;0.88;;;;;;;19.17;45.36;102325.13;5029958;28;20060;-47
2023/10/16 12:42:01;;;;;;;2.70;0.70;;;;;;;19.13;45.23;102320.72;5029697;28;20530;-45
2023/10/16 12:44:27;;;;;;;2.40;0.80;;;;;;;19.35;44.99;102316.31;5029641;28;20041;-49
2023/10/16 12:46:55;;;;;;;4.18;1.00;;;;;;;19.29;44.48;102318.97;5029963;28;20057;-47
2023/10/16 12:49:21;;;;;;;2.97;0.70;;;;;;;18.60;42.95;102310.06;5029647;28;20103;-46
2023/10/16 12:51:48;;;;;;;1.58;0.70;;;;;;;19.04;43.39;102315.41;5029923;28;20049;-47
2023/10/16 12:54:15;;;;;;;3.35;0.90;;;;;;;18.82;42.34;102305.69;5029266;28;20029;-48
2023/10/16 12:56:43;;;;;;;6.65;1.05;;;;;;;19.19;42.18;102311.91;5030001;28;20040;-46
2023/10/16 12:59:08;;;;;;;2.88;0.85;;;;;;;19.14;43.14;102316.31;5029532;28;20044;-47
2023/10/16 13:01:36;;;;;;;3.08;0.70;;;;;;;19.06;43.52;102316.31;5029868;28;20037;-45
2023/10/16 13:04:03;;;;;;;1.73;0.80;;;;;;;19.03;43.11;102313.63;5029196;28;20049;-47
2023/10/16 13:06:30;;;;;;;3.47;0.93;;;;;;;19.00;44.11;102311.00;5029813;28;20059;-48
2023/10/16 13:08:57;;;;;;;3.45;0.90;;;;;;;18.92;43.68;102311.00;5029049;28;20048;-45
2023/10/16 13:11:22;;;;;;;4.53;0.70;;;;;;;19.01;43.81;102311.03;5029738;28;20041;-48
2023/10/16 13:13:48;;;;;;;3.90;0.90;;;;;;;18.96;44.26;102310.13;5031436;28;20061;-47
2023/10/16 13:16:15;;;;;;;1.92;0.70;;;;;;;18.59;44.00;102305.63;5030991;28;20048;-48
2023/10/16 13:18:40;;;;;;;1.70;0.68;;;;;;;18.45;45.83;102317.88;5030625;28;20044;-47
2023/10/16 13:21:13;;;;;;;3.38;0.80;;;;;;;18.36;44.70;102316.06;5029168;28;20076;-47
2023/10/16 13:23:39;;;;;;;1.88;0.70;;;;;;;18.11;44.98;102312.41;5029470;28;20353;-51
2023/10/16 13:26:07;;;;;;;1.77;0.73;;;;;;;18.13;44.94;102305.41;5028541;28;20041;-46
2023/10/16 13:28:36;;;;;;;3.08;0.90;;;;;;;18.17;46.55;102308.97;5029410;28;20131;-47
2023/10/16 13:31:03;;;;;;;4.72;0.70;;;;;;;17.93;46.72;102309.69;5028856;28;20120;-48
2023/10/16 13:33:32;;;;;;;3.25;0.75;;;;;;;18.05;48.09;102306.25;5029044;28;20041;-50
2023/10/16 13:35:59;;;;;;;4.35;1.00;;;;;;;17.91;49.81;102310.56;5028808;28;20447;-47
2023/10/16 13:38:26;;;;;;;4.32;0.70;;;;;;;18.17;49.46;102309.84;5029366;28;20415;-45